createdAt,value
2019-03-17T00:01:35.085Z,11.07
2019-03-17T00:04:06.134Z,11.06
2019-03-17T00:06:36.305Z,11.07
2019-03-17T00:09:07.596Z,11.14
2019-03-17T00:11:37.732Z,11.15
2019-03-17T00:14:07.938Z,11.15
2019-03-17T00:16:38.245Z,11.17
2019-03-17T00:19:08.242Z,11.20
2019-03-17T00:21:38.219Z,11.20
2019-03-17T00:24:08.251Z,11.26
2019-03-17T00:26:38.110Z,11.26
2019-03-17T00:29:08.145Z,11.24
2019-03-17T00:31:38.478Z,11.29
2019-03-17T00:34:08.633Z,11.30
2019-03-17T00:36:38.695Z,11.30
2019-03-17T00:39:08.528Z,11.36
2019-03-17T00:41:38.067Z,11.30
2019-03-17T00:44:07.611Z,11.30
2019-03-17T00:46:37.239Z,11.34
2019-03-17T00:49:06.789Z,11.34
2019-03-17T00:51:36.322Z,11.30
2019-03-17T00:54:05.916Z,11.33
2019-03-17T00:56:35.521Z,11.33
2019-03-17T00:59:05.079Z,11.30
2019-03-17T01:01:34.730Z,11.34
2019-03-17T01:04:04.266Z,11.34
2019-03-17T01:06:33.892Z,11.37
2019-03-17T01:09:05.456Z,11.40
2019-03-17T01:11:35.046Z,11.38
2019-03-17T01:14:04.693Z,11.39
2019-03-17T01:16:34.252Z,11.40
2019-03-17T01:19:03.805Z,11.33
2019-03-17T01:21:33.382Z,11.36
2019-03-17T01:24:03.012Z,11.37
2019-03-17T01:26:32.644Z,11.42
2019-03-17T01:29:02.227Z,11.37
2019-03-17T01:31:31.873Z,11.42
2019-03-17T01:34:01.474Z,11.41
2019-03-17T01:36:31.019Z,11.42
2019-03-17T01:39:00.561Z,11.40
2019-03-17T01:41:30.175Z,11.40
2019-03-17T01:43:59.767Z,11.39
2019-03-17T01:46:29.332Z,11.47
2019-03-17T01:48:58.874Z,11.46
2019-03-17T01:51:28.418Z,11.46
2019-03-17T01:53:57.989Z,11.46
2019-03-17T01:56:27.514Z,11.45
2019-03-17T01:58:57.068Z,11.44
2019-03-17T02:01:26.733Z,11.37
2019-03-17T02:03:56.265Z,11.35
2019-03-17T02:06:25.822Z,11.40
2019-03-17T02:08:55.362Z,11.37
2019-03-17T02:11:24.910Z,11.35
2019-03-17T02:13:54.526Z,11.38
2019-03-17T02:16:24.176Z,11.30
2019-03-17T02:18:53.735Z,11.33
2019-03-17T02:21:23.559Z,11.33
2019-03-17T02:23:53.358Z,11.36
2019-03-17T02:26:22.891Z,11.37
2019-03-17T02:28:52.427Z,11.40
2019-03-17T02:31:22.001Z,11.43
2019-03-17T02:33:51.771Z,11.43
2019-03-17T02:36:21.328Z,11.38
2019-03-17T02:38:51.205Z,11.40
2019-03-17T02:41:20.750Z,11.37
2019-03-17T02:43:50.358Z,11.37
2019-03-17T02:46:19.874Z,11.36
2019-03-17T02:48:49.479Z,11.38
2019-03-17T02:51:19.023Z,11.36
2019-03-17T02:53:48.574Z,11.37
2019-03-17T02:56:18.139Z,11.31
2019-03-17T02:58:47.666Z,11.34
2019-03-17T03:01:17.218Z,11.34
2019-03-17T03:03:46.781Z,11.37
2019-03-17T03:06:16.350Z,11.34
2019-03-17T03:08:46.041Z,11.37
2019-03-17T03:11:15.656Z,11.35
2019-03-17T03:13:45.214Z,11.31
2019-03-17T03:16:14.760Z,11.28
2019-03-17T03:18:44.298Z,11.30
2019-03-17T03:21:13.900Z,11.29
2019-03-17T03:23:43.468Z,11.27
2019-03-17T03:26:13.040Z,11.26
2019-03-17T03:28:42.583Z,11.27
2019-03-17T03:31:12.150Z,11.21
2019-03-17T03:33:41.736Z,11.14
2019-03-17T03:36:12.137Z,11.15
2019-03-17T03:38:41.858Z,11.21
2019-03-17T03:41:11.404Z,11.23
2019-03-17T03:43:41.309Z,11.24
2019-03-17T03:46:10.845Z,11.17
2019-03-17T03:48:40.422Z,11.25
2019-03-17T03:51:10.017Z,11.20
2019-03-17T03:53:39.557Z,11.18
2019-03-17T03:56:09.280Z,11.15
2019-03-17T03:58:38.902Z,11.13
2019-03-17T04:01:08.755Z,11.15
2019-03-17T04:03:38.355Z,11.16
2019-03-17T04:06:07.883Z,11.17
2019-03-17T04:08:37.441Z,11.11
2019-03-17T04:11:07.059Z,11.08
2019-03-17T04:13:36.792Z,11.13
2019-03-17T04:16:06.337Z,11.07
2019-03-17T04:18:35.914Z,11.08
2019-03-17T04:21:05.476Z,11.03
2019-03-17T04:23:35.034Z,11.00
2019-03-17T04:26:04.816Z,11.02
2019-03-17T04:28:34.361Z,11.01
2019-03-17T04:31:03.893Z,11.03
2019-03-17T04:33:33.487Z,10.99
2019-03-17T04:36:03.099Z,10.97
2019-03-17T04:38:32.751Z,10.95
2019-03-17T04:41:02.292Z,10.97
2019-03-17T04:43:31.837Z,10.94
2019-03-17T04:46:01.387Z,10.94
2019-03-17T04:48:30.950Z,10.89
2019-03-17T04:51:00.508Z,10.90
2019-03-17T04:53:30.036Z,10.82
2019-03-17T04:55:59.598Z,10.84
2019-03-17T04:58:29.224Z,10.79
2019-03-17T05:00:58.784Z,10.74
2019-03-17T05:03:28.645Z,10.75
2019-03-17T05:05:58.511Z,10.78
2019-03-17T05:08:28.064Z,10.69
2019-03-17T05:10:57.612Z,10.68
2019-03-17T05:13:27.195Z,10.60
2019-03-17T05:15:57.208Z,10.66
2019-03-17T05:18:26.802Z,10.61
2019-03-17T05:20:56.343Z,10.62
2019-03-17T05:23:25.905Z,10.57
2019-03-17T05:25:55.521Z,10.48
2019-03-17T05:28:25.073Z,10.44
2019-03-17T05:30:54.623Z,10.34
2019-03-17T05:33:24.176Z,10.25
2019-03-17T05:35:53.761Z,10.17
2019-03-17T05:38:23.320Z,10.15
2019-03-17T05:40:52.855Z,10.15
2019-03-17T05:43:22.401Z,10.05
2019-03-17T05:45:51.939Z,10.01
2019-03-17T05:48:21.471Z,9.90
2019-03-17T05:50:51.025Z,9.86
2019-03-17T05:53:20.569Z,9.74
2019-03-17T05:55:50.120Z,9.75
2019-03-17T05:58:19.656Z,9.62
2019-03-17T06:00:49.194Z,9.60
2019-03-17T06:03:18.741Z,9.56
2019-03-17T06:05:48.316Z,9.60
2019-03-17T06:08:17.873Z,9.50
2019-03-17T06:10:47.405Z,9.57
2019-03-17T06:13:17.053Z,9.51
2019-03-17T06:15:46.584Z,9.48
2019-03-17T06:18:16.157Z,9.48
2019-03-17T06:20:45.697Z,9.46
2019-03-17T06:23:15.234Z,9.43
2019-03-17T06:25:44.814Z,9.46
2019-03-17T06:28:14.399Z,9.46
2019-03-17T06:30:43.994Z,9.41
2019-03-17T06:33:13.519Z,9.42
2019-03-17T06:35:43.222Z,9.39
2019-03-17T06:38:12.766Z,9.43
2019-03-17T06:40:42.380Z,9.37
2019-03-17T06:43:11.899Z,9.42
2019-03-17T06:45:41.448Z,9.35
2019-03-17T06:48:10.998Z,9.34
2019-03-17T06:50:40.531Z,9.33
2019-03-17T06:53:10.058Z,9.30
2019-03-17T06:55:39.620Z,9.39
2019-03-17T06:58:09.187Z,9.36
2019-03-17T07:00:38.725Z,9.32
2019-03-17T07:03:08.256Z,9.34
2019-03-17T07:05:37.872Z,9.30
2019-03-17T07:08:07.420Z,9.35
2019-03-17T07:10:36.955Z,9.26
2019-03-17T07:13:06.573Z,9.31
2019-03-17T07:15:36.099Z,9.33
2019-03-17T07:18:05.703Z,9.24
2019-03-17T07:20:35.259Z,9.18
2019-03-17T07:23:04.776Z,9.17
2019-03-17T07:25:34.328Z,9.15
2019-03-17T07:28:03.873Z,9.22
2019-03-17T07:30:33.443Z,9.14
2019-03-17T07:33:03.014Z,9.10
2019-03-17T07:35:32.651Z,9.12
2019-03-17T07:38:02.218Z,9.15
2019-03-17T07:40:31.749Z,9.15
2019-03-17T07:43:01.370Z,9.18
2019-03-17T07:45:30.947Z,9.21
2019-03-17T07:48:00.491Z,9.18
2019-03-17T07:50:30.033Z,9.19
2019-03-17T07:52:59.579Z,9.12
2019-03-17T07:55:29.121Z,9.01
2019-03-17T07:57:58.956Z,9.10
2019-03-17T08:00:32.067Z,9.02
2019-03-17T08:03:01.231Z,8.85
2019-03-17T08:05:30.774Z,8.63
2019-03-17T08:08:09.371Z,8.36
2019-03-17T08:10:31.587Z,8.11
2019-03-17T08:13:01.112Z,7.97
2019-03-17T08:15:30.648Z,7.80
2019-03-17T08:18:00.188Z,7.61
2019-03-17T08:20:29.736Z,7.55
2019-03-17T08:22:59.268Z,7.50
2019-03-17T08:25:28.798Z,7.37
2019-03-17T08:27:58.336Z,7.48
2019-03-17T08:30:27.877Z,7.40
2019-03-17T08:32:57.408Z,7.47
2019-03-17T08:35:26.970Z,7.48
2019-03-17T08:37:56.524Z,7.55
2019-03-17T08:40:26.378Z,7.55
2019-03-17T08:42:55.895Z,7.58
2019-03-17T08:45:25.462Z,7.59
2019-03-17T08:47:58.314Z,7.54
2019-03-17T08:50:26.268Z,7.58
2019-03-17T08:52:55.967Z,7.57
2019-03-17T08:55:25.553Z,7.61
2019-03-17T08:57:55.204Z,7.69
2019-03-17T09:00:25.127Z,7.73
2019-03-17T09:02:54.666Z,7.82
2019-03-17T09:05:24.193Z,7.82
2019-03-17T09:07:53.725Z,7.88
2019-03-17T09:10:23.263Z,7.89
2019-03-17T09:12:52.819Z,7.96
2019-03-17T09:15:22.348Z,7.93
2019-03-17T09:17:51.884Z,7.98
2019-03-17T09:20:21.442Z,8.00
2019-03-17T09:22:50.999Z,8.05
2019-03-17T09:25:20.526Z,7.88
2019-03-17T09:27:50.083Z,7.89
2019-03-17T09:30:20.389Z,7.93
2019-03-17T09:32:50.044Z,7.94
2019-03-17T09:35:19.570Z,7.98
2019-03-17T09:37:49.105Z,8.04
2019-03-17T09:40:19.274Z,8.10
2019-03-17T09:42:48.966Z,8.20
2019-03-17T09:45:18.497Z,8.25
2019-03-17T09:47:48.080Z,8.27
2019-03-17T09:50:22.616Z,8.33
2019-03-17T09:52:52.217Z,8.44
2019-03-17T09:55:21.811Z,8.43
2019-03-17T09:57:51.339Z,8.59
2019-03-17T10:00:23.287Z,8.65
2019-03-17T10:02:53.140Z,8.65
2019-03-17T10:05:24.129Z,8.78
2019-03-17T10:07:53.669Z,8.79
2019-03-17T10:10:24.784Z,8.80
2019-03-17T10:12:54.321Z,8.90
2019-03-17T10:15:23.843Z,8.88
2019-03-17T10:17:53.651Z,8.86
2019-03-17T10:20:23.276Z,8.94
2019-03-17T10:22:52.791Z,8.86
2019-03-17T10:25:22.351Z,8.93
2019-03-17T10:27:51.873Z,8.98
2019-03-17T10:30:22.460Z,8.87
2019-03-17T10:32:52.065Z,8.78
2019-03-17T10:35:21.598Z,8.63
2019-03-17T10:37:51.179Z,8.49
2019-03-17T10:40:22.338Z,8.28
2019-03-17T10:42:51.946Z,8.10
2019-03-17T10:45:21.471Z,7.86
2019-03-17T10:47:51.029Z,7.62
2019-03-17T10:50:22.080Z,7.47
2019-03-17T10:52:51.602Z,7.32
2019-03-17T10:55:21.209Z,7.18
2019-03-17T10:57:50.735Z,7.05
2019-03-17T11:00:24.535Z,7.02
2019-03-17T11:02:54.102Z,6.95
2019-03-17T11:05:23.628Z,6.85
2019-03-17T11:07:53.316Z,6.89
2019-03-17T11:10:22.865Z,6.82
2019-03-17T11:12:52.426Z,6.88
2019-03-17T11:15:23.370Z,6.91
2019-03-17T11:17:52.916Z,6.91
2019-03-17T11:20:22.448Z,6.92
2019-03-17T11:22:51.984Z,6.93
2019-03-17T11:25:21.775Z,6.94
2019-03-17T11:27:51.334Z,6.97
2019-03-17T11:30:22.279Z,7.08
2019-03-17T11:32:51.890Z,7.20
2019-03-17T11:35:21.541Z,7.26
2019-03-17T11:37:51.049Z,7.34
2019-03-17T11:40:21.537Z,7.46
2019-03-17T11:42:51.668Z,7.49
2019-03-17T11:45:21.310Z,7.62
2019-03-17T11:47:51.579Z,7.78
2019-03-17T11:50:22.326Z,7.91
2019-03-17T11:52:52.238Z,8.04
2019-03-17T11:55:21.775Z,8.19
2019-03-17T11:57:51.726Z,8.30
2019-03-17T12:00:23.142Z,8.44
2019-03-17T12:02:52.688Z,8.49
2019-03-17T12:05:22.260Z,8.57
2019-03-17T12:07:51.799Z,8.64
2019-03-17T12:10:25.573Z,8.70
2019-03-17T12:12:55.178Z,8.80
2019-03-17T12:15:27.837Z,8.85
2019-03-17T12:17:57.458Z,8.94
2019-03-17T12:20:27.553Z,9.05
2019-03-17T12:22:57.781Z,9.10
2019-03-17T12:25:27.965Z,9.15
2019-03-17T12:27:57.567Z,9.27
2019-03-17T12:30:30.218Z,9.33
2019-03-17T12:32:59.736Z,9.32
2019-03-17T12:35:29.596Z,9.29
2019-03-17T12:37:59.135Z,9.39
2019-03-17T12:40:28.660Z,9.43
2019-03-17T12:42:58.231Z,9.36
2019-03-17T12:45:27.780Z,9.37
2019-03-17T12:47:57.324Z,9.55
2019-03-17T12:50:28.093Z,9.62
2019-03-17T12:52:57.656Z,9.69
2019-03-17T12:55:27.201Z,9.70
2019-03-17T12:57:56.784Z,9.83
2019-03-17T13:00:28.339Z,9.84
2019-03-17T13:02:57.875Z,9.89
2019-03-17T13:05:27.478Z,9.95
2019-03-17T13:07:57.070Z,10.03
2019-03-17T13:10:26.624Z,10.16
2019-03-17T13:12:56.166Z,10.20
2019-03-17T13:15:25.795Z,10.28
2019-03-17T13:17:55.361Z,10.33
2019-03-17T13:20:24.891Z,10.33
2019-03-17T13:22:54.436Z,10.30
2019-03-17T13:25:23.992Z,10.17
2019-03-17T13:27:53.605Z,10.19
2019-03-17T13:30:23.130Z,10.24
2019-03-17T13:32:52.706Z,10.27
2019-03-17T13:35:22.264Z,10.36
2019-03-17T13:37:51.784Z,10.38
2019-03-17T13:40:29.469Z,10.47
2019-03-17T13:42:53.070Z,10.61
2019-03-17T13:45:22.644Z,10.60
2019-03-17T13:47:53.254Z,10.60
2019-03-17T13:50:24.616Z,10.59
2019-03-17T13:52:54.184Z,10.58
2019-03-17T13:55:23.749Z,10.68
2019-03-17T13:58:12.676Z,10.69
2019-03-17T14:00:42.255Z,10.66
2019-03-17T14:03:11.789Z,10.62
2019-03-17T14:05:41.343Z,10.47
2019-03-17T14:08:10.893Z,10.30
2019-03-17T14:10:41.614Z,10.11
2019-03-17T14:13:11.262Z,9.97
2019-03-17T14:15:40.784Z,9.92
2019-03-17T14:18:10.351Z,9.84
2019-03-17T14:20:39.944Z,9.85
2019-03-17T14:23:09.465Z,9.78
2019-03-17T14:25:39.602Z,9.74
2019-03-17T14:28:09.548Z,9.57
2019-03-17T14:30:39.084Z,9.54
2019-03-17T14:33:10.489Z,9.49
2019-03-17T14:35:39.994Z,9.47
2019-03-17T14:38:09.628Z,9.34
2019-03-17T14:40:39.162Z,9.29
2019-03-17T14:43:08.688Z,9.22
2019-03-17T14:45:38.326Z,9.10
2019-03-17T14:48:07.824Z,9.14
2019-03-17T14:50:37.356Z,9.14
2019-03-17T14:53:07.471Z,9.05
2019-03-17T14:55:38.150Z,8.93
2019-03-17T14:58:08.327Z,8.89
2019-03-17T15:00:37.988Z,9.02
2019-03-17T15:03:07.609Z,8.94
2019-03-17T15:05:37.163Z,8.94
2019-03-17T15:08:06.696Z,8.87
2019-03-17T15:10:36.231Z,8.76
2019-03-17T15:13:05.782Z,8.86
2019-03-17T15:15:35.321Z,8.94
2019-03-17T15:18:04.857Z,8.96
2019-03-17T15:20:34.490Z,8.91
2019-03-17T15:23:04.035Z,8.92
2019-03-17T15:25:33.603Z,8.98
2019-03-17T15:28:03.528Z,9.02
2019-03-17T15:30:36.050Z,8.97
2019-03-17T15:33:06.078Z,8.89
2019-03-17T15:35:35.968Z,8.80
2019-03-17T15:38:06.303Z,8.71
2019-03-17T15:40:36.734Z,8.67
2019-03-17T15:43:07.489Z,8.79
2019-03-17T15:45:37.615Z,8.80
2019-03-17T15:48:07.825Z,8.96
2019-03-17T15:50:38.417Z,9.04
2019-03-17T15:53:08.154Z,9.02
2019-03-17T15:55:38.197Z,9.10
2019-03-17T15:58:08.262Z,9.04
2019-03-17T16:00:38.301Z,9.05
2019-03-17T16:03:08.531Z,9.05
2019-03-17T16:05:38.785Z,9.02
2019-03-17T16:08:10.220Z,8.96
2019-03-17T16:10:41.394Z,8.97
2019-03-17T16:13:11.457Z,8.99
2019-03-17T16:15:41.972Z,8.97
2019-03-17T16:18:12.207Z,8.90
2019-03-17T16:20:42.685Z,8.80
2019-03-17T16:23:12.867Z,8.57
2019-03-17T16:25:42.984Z,8.18
2019-03-17T16:28:13.217Z,7.60
2019-03-17T16:30:44.358Z,7.36
2019-03-17T16:33:14.577Z,7.13
2019-03-17T16:35:46.350Z,7.08
2019-03-17T16:38:16.808Z,7.06
2019-03-17T16:40:46.801Z,7.10
2019-03-17T16:43:16.910Z,7.15
2019-03-17T16:45:47.521Z,7.18
2019-03-17T16:48:17.504Z,7.25
2019-03-17T16:50:47.755Z,7.23
2019-03-17T16:53:17.877Z,7.27
2019-03-17T16:55:47.867Z,7.27
2019-03-17T16:58:17.982Z,7.28
2019-03-17T17:00:47.682Z,7.18
2019-03-17T17:03:17.219Z,7.04
2019-03-17T17:05:46.754Z,6.95
2019-03-17T17:08:16.289Z,6.89
2019-03-17T17:10:50.510Z,6.85
2019-03-17T17:13:17.235Z,6.80
2019-03-17T17:15:46.977Z,6.70
2019-03-17T17:18:16.592Z,6.61
2019-03-17T17:20:46.134Z,6.51
2019-03-17T17:23:15.680Z,6.45
2019-03-17T17:25:45.236Z,6.35
2019-03-17T17:28:14.750Z,6.32
2019-03-17T17:30:44.304Z,6.30
2019-03-17T17:33:13.821Z,6.32
2019-03-17T17:35:43.375Z,6.29
2019-03-17T17:38:13.192Z,6.23
2019-03-17T17:40:42.741Z,6.21
2019-03-17T17:43:12.283Z,6.12
2019-03-17T17:45:41.810Z,6.14
2019-03-17T17:48:11.460Z,6.16
2019-03-17T17:50:40.991Z,6.12
2019-03-17T17:53:10.528Z,6.18
2019-03-17T17:55:40.079Z,6.16
2019-03-17T17:58:09.633Z,6.15
2019-03-17T18:00:40.835Z,6.08
2019-03-17T18:03:10.368Z,6.07
2019-03-17T18:05:39.978Z,6.04
2019-03-17T18:08:09.530Z,6.03
2019-03-17T18:10:39.062Z,6.06
2019-03-17T18:13:08.613Z,6.07
2019-03-17T18:15:38.608Z,6.09
2019-03-17T18:18:08.163Z,6.07
2019-03-17T18:20:37.683Z,6.03
2019-03-17T18:23:17.206Z,6.08
2019-03-17T18:25:38.804Z,6.09
2019-03-17T18:28:08.344Z,6.13
2019-03-17T18:30:37.889Z,6.17
2019-03-17T18:33:07.432Z,6.19
2019-03-17T18:35:37.007Z,6.21
2019-03-17T18:38:06.526Z,6.21
2019-03-17T18:40:36.056Z,6.22
2019-03-17T18:43:05.577Z,6.25
2019-03-17T18:45:35.214Z,6.21
2019-03-17T18:48:04.847Z,6.22
2019-03-17T18:50:34.420Z,6.19
2019-03-17T18:53:03.972Z,6.25
2019-03-17T18:55:33.527Z,6.20
2019-03-17T18:58:03.094Z,6.24
2019-03-17T19:00:33.182Z,6.26
2019-03-17T19:03:02.818Z,6.22
2019-03-17T19:05:32.387Z,6.26
2019-03-17T19:08:02.062Z,6.31
2019-03-17T19:10:31.929Z,6.33
2019-03-17T19:13:03.782Z,6.36
2019-03-17T19:15:33.221Z,6.29
2019-03-17T19:18:03.802Z,6.33
2019-03-17T19:20:33.380Z,6.35
2019-03-17T19:23:02.946Z,6.34
2019-03-17T19:25:32.574Z,6.36
2019-03-17T19:28:02.125Z,6.35
2019-03-17T19:30:31.963Z,6.33
2019-03-17T19:33:01.601Z,6.31
2019-03-17T19:35:31.138Z,6.26
2019-03-17T19:38:00.683Z,6.15
2019-03-17T19:40:30.226Z,6.20
2019-03-17T19:43:00.028Z,6.11
2019-03-17T19:45:29.626Z,6.08
2019-03-17T19:47:59.204Z,6.08
2019-03-17T19:50:28.748Z,5.96
2019-03-17T19:52:58.268Z,5.89
2019-03-17T19:55:27.813Z,5.84
2019-03-17T19:57:58.291Z,5.87
2019-03-17T20:00:28.448Z,5.84
2019-03-17T20:02:58.659Z,5.83
2019-03-17T20:05:28.911Z,5.79
2019-03-17T20:07:59.131Z,5.77
2019-03-17T20:10:35.777Z,5.76
2019-03-17T20:13:11.673Z,5.73
2019-03-17T20:15:36.605Z,5.69
2019-03-17T20:18:06.762Z,5.72
2019-03-17T20:20:51.547Z,5.68
2019-03-17T20:23:21.642Z,5.70
2019-03-17T20:25:51.604Z,5.71
2019-03-17T20:28:21.775Z,5.66
2019-03-17T20:30:51.871Z,5.67
2019-03-17T20:33:22.291Z,5.59
2019-03-17T20:35:53.103Z,5.61
2019-03-17T20:38:23.156Z,5.64
2019-03-17T20:40:53.415Z,5.62
2019-03-17T20:43:34.212Z,5.58
2019-03-17T20:45:55.496Z,5.53
2019-03-17T20:48:25.904Z,5.55
2019-03-17T20:50:56.015Z,5.61
2019-03-17T20:53:26.126Z,5.59
2019-03-17T20:55:56.793Z,5.51
2019-03-17T20:58:26.781Z,5.48
2019-03-17T21:00:57.005Z,5.47
2019-03-17T21:03:27.217Z,5.41
2019-03-17T21:05:57.469Z,5.37
2019-03-17T21:08:27.996Z,5.33
2019-03-17T21:10:59.654Z,5.22
2019-03-17T21:13:29.737Z,5.15
2019-03-17T21:16:00.342Z,5.14
2019-03-17T21:18:30.494Z,5.11
2019-03-17T21:21:00.517Z,5.05
2019-03-17T21:23:30.644Z,5.02
2019-03-17T21:26:00.866Z,5.06
2019-03-17T21:28:31.074Z,5.01
2019-03-17T21:31:01.145Z,4.98
2019-03-17T21:33:31.315Z,4.94
2019-03-17T21:36:01.517Z,4.96
2019-03-17T21:38:31.423Z,4.94
2019-03-17T21:41:07.220Z,4.93
2019-03-17T21:43:34.563Z,4.87
2019-03-17T21:46:05.682Z,4.86
2019-03-17T21:48:36.058Z,4.86
2019-03-17T21:51:06.237Z,4.83
2019-03-17T21:53:36.430Z,4.79
2019-03-17T21:56:09.034Z,4.74
2019-03-17T21:58:38.929Z,4.66
2019-03-17T22:01:09.322Z,4.62
2019-03-17T22:03:39.494Z,4.67
2019-03-17T22:06:09.691Z,4.70
2019-03-17T22:08:41.473Z,4.64
2019-03-17T22:11:11.651Z,4.66
2019-03-17T22:13:41.459Z,4.55
2019-03-17T22:16:11.934Z,4.60
2019-03-17T22:18:41.531Z,4.60
2019-03-17T22:21:11.427Z,4.58
2019-03-17T22:23:41.468Z,4.61
2019-03-17T22:26:11.702Z,4.62
2019-03-17T22:28:41.291Z,4.54
2019-03-17T22:31:11.391Z,4.55
2019-03-17T22:33:40.974Z,4.53
2019-03-17T22:36:10.568Z,4.56
2019-03-17T22:38:40.094Z,4.61
2019-03-17T22:41:10.092Z,4.54
2019-03-17T22:43:39.633Z,4.58
2019-03-17T22:46:09.198Z,4.52
2019-03-17T22:48:38.732Z,4.55
2019-03-17T22:51:08.306Z,4.57
2019-03-17T22:53:37.838Z,4.60
2019-03-17T22:56:07.398Z,4.46
2019-03-17T22:58:36.932Z,4.54
2019-03-17T23:01:06.470Z,4.47
2019-03-17T23:03:36.028Z,4.49
2019-03-17T23:06:05.608Z,4.50
2019-03-17T23:08:35.268Z,4.52
2019-03-17T23:11:05.139Z,4.52
2019-03-17T23:13:34.800Z,4.55
2019-03-17T23:16:04.338Z,4.50
2019-03-17T23:18:33.878Z,4.54
2019-03-17T23:21:03.407Z,4.52
2019-03-17T23:23:32.984Z,4.49
2019-03-17T23:26:02.534Z,4.52
2019-03-17T23:28:32.103Z,4.51
2019-03-17T23:31:01.642Z,4.45
2019-03-17T23:33:31.237Z,4.50
2019-03-17T23:36:00.837Z,4.46
2019-03-17T23:38:30.384Z,4.47
2019-03-17T23:40:59.964Z,4.42
2019-03-17T23:43:29.529Z,4.44
2019-03-17T23:45:59.088Z,4.44
2019-03-17T23:48:28.738Z,4.47
2019-03-17T23:50:58.254Z,4.45
2019-03-17T23:53:27.793Z,4.43
2019-03-17T23:55:57.389Z,4.50
2019-03-17T23:58:26.929Z,4.47
